Pagrindinis puslapis
METAR-TAF:

METAR-TAF

Oro uostai :

Heidrun, Norvegija

platuma: 65-19-30N, ilguma: 007-19-36E, Aukštis: 0 m

Dabartinis oras

Ataskaita buvo paskelbta 28 minutes, ne 13:20 UTC
Vėjas 5 kt iš Vakarų
Temperatūra 6°C
Drėgmė 61%
Slėgis 1014 hPa
Matomumas 10 km arba daugiau
Mažai debesys ne aukštis 2000 ft
Išsisklaidę debesys ne aukštis 3000 ft

METAR: ENHE 231320Z 28005KT 9999 FEW020 SCT030 06/M01 Q1014 W///S4

Laikas: 15:48 (13:48 UTC)

Prognozė

Ataskaita buvo paskelbta 2 valandos ir 48 minutes, ne 11:00 UTC
Prognozė galioja nuo 23 metu 12 UTC su 23 metu 21 UTC
Vėjas 12 kt iš Vakarų
Matomumas 10 km arba daugiau
Su prošvaistėmis ne aukštis 3000 ft
Tapsmas
nuo 23 metu 15 UTC su 23 metu 17 UTC
Vėjas 12 kt iš Pietų/Pietvakarių
Tapsmas
nuo 23 metu 18 UTC su 23 metu 20 UTC
Vėjas 22 kt iš Pietų

TAF: ENHE 231100Z 2312/2321 26012KT 9999 BKN030 BECMG 2315/2317 20012KT BECMG 2318/2320 17022KT

Orai ataskaitas ir orų prognozės (METAR, TAF).

turimą stotys yra geltonos ir raudonos taškus žemėlapyje.

Perkelti pele per norėdami pamatyti stoties vardą.

Tada spustelėkite, norėdami matyti oro stebėjimo ir prognozės.

Norėdami pakeisti žemėlapį: spustelėkite ant žalios mygtukų su juodo kryžiaus žemyn,; žalią mygtuką su brūkšneliu, jei norite nutolinti; arba žalių rodyklių gretimoms žemėlapius.


METAR-TAF: